Temp Hi Low Out Dew Wind Wind Wind Hi Hi Wind Heat THW THSW Rain Solar Solar Hi Solar UV UV Hi Heat Cool In In In In In In Air Wind Wind ISS Arc.
Date Time Out Temp Temp Hum Pt. Speed Dir Run Speed Dir Chill Index Index Index Bar Rain Rate Rad. Energy Rad. Index Dose UV D-D D-D Temp Hum Dew Heat EMC Density ET Samp Tx Recept Int.
------------------------------------------------------------------------------------------------------------------------------------------------------------------------------------------------------------------------------------------------------------------------
5/08/26 12:10a 49.3 49.3 49.1 86 45.3 0.0 ENE 0.00 2.0 ENE 49.3 49.4 49.4 46.1 30.112 0.00 0.00 0 0.00 0 0.0 0.00 0.0 0.109 0.000 72.4 50 52.7 71.7 9.25 .0741 0.000 202 7 100.0 10
5/08/26 12:20a 49.5 49.5 49.2 86 45.5 0.0 ENE 0.00 2.0 ENE 49.5 49.6 49.6 46.3 30.115 0.00 0.00 0 0.00 0 0.0 0.00 0.0 0.108 0.000 72.4 50 52.7 71.7 9.25 .0741 0.000 202 7 100.0 10
5/08/26 12:30a 49.7 49.7 49.5 86 45.7 0.0 ENE 0.00 2.0 ENE 49.7 49.8 49.8 46.5 30.115 0.00 0.00 0 0.00 0 0.0 0.00 0.0 0.106 0.000 72.3 50 52.6 71.5 9.25 .0741 0.000 202 7 100.0 10
5/08/26 12:40a 49.8 49.8 49.7 87 46.1 0.0 ENE 0.00 1.0 ENE 49.8 50.0 50.0 46.7 30.115 0.00 0.00 0 0.00 0 0.0 0.00 0.0 0.106 0.000 72.3 50 52.6 71.5 9.25 .0741 0.000 203 7 100.0 10
5/08/26 12:50a 49.9 49.9 49.8 87 46.2 1.0 ENE 0.17 3.0 ENE 49.9 50.1 50.1 46.8 30.111 0.00 0.00 0 0.00 0 0.0 0.00 0.0 0.105 0.000 72.2 50 52.5 71.4 9.25 .0741 0.000 202 7 100.0 10
5/08/26 1:00a 50.0 50.1 49.9 87 46.3 1.0 ENE 0.17 2.0 ENE 50.0 50.2 50.2 46.9 30.113 0.00 0.00 0 0.00 0 0.0 0.00 0.0 0.104 0.000 72.2 50 52.5 71.4 9.25 .0741 0.000 202 7 100.0 10
5/08/26 1:10a 50.0 50.1 50.0 87 46.3 0.0 ENE 0.00 3.0 ENE 50.0 50.2 50.2 46.9 30.114 0.00 0.00 0 0.00 0 0.0 0.00 0.0 0.104 0.000 72.2 50 52.5 71.4 9.25 .0741 0.000 202 7 100.0 10
5/08/26 1:20a 50.0 50.0 49.9 88 46.6 0.0 ENE 0.00 2.0 ENE 50.0 50.2 50.2 46.9 30.114 0.00 0.00 0 0.00 0 0.0 0.00 0.0 0.104 0.000 72.1 50 52.4 71.2 9.25 .0741 0.000 203 7 100.0 10
5/08/26 1:30a 49.9 50.0 49.8 88 46.5 1.0 ENE 0.17 2.0 ENE 49.9 50.1 50.1 46.8 30.120 0.00 0.00 0 0.00 0 0.0 0.00 0.0 0.105 0.000 72.1 50 52.4 71.2 9.25 .0741 0.000 203 7 100.0 10
5/08/26 1:40a 49.9 50.0 49.9 88 46.5 0.0 ENE 0.00 2.0 ENE 49.9 50.1 50.1 46.8 30.124 0.00 0.00 0 0.00 0 0.0 0.00 0.0 0.105 0.000 72.1 50 52.4 71.2 9.25 .0741 0.000 203 7 100.0 10
5/08/26 1:50a 49.9 50.0 49.8 88 46.5 0.0 ENE 0.00 2.0 ENE 49.9 50.1 50.1 46.8 30.126 0.00 0.00 0 0.00 0 0.0 0.00 0.0 0.105 0.000 72.0 50 52.3 71.1 9.25 .0742 0.000 204 7 100.0 10
5/08/26 2:00a 50.0 50.0 49.8 88 46.6 0.0 ENE 0.00 2.0 ENE 50.0 50.2 50.2 46.9 30.132 0.00 0.00 0 0.00 0 0.0 0.00 0.0 0.104 0.000 72.0 50 52.3 71.1 9.25 .0742 0.000 203 7 100.0 10
5/08/26 2:10a 50.1 50.1 50.0 88 46.7 0.0 ENE 0.00 2.0 ENE 50.1 50.3 50.3 47.0 30.128 0.00 0.00 0 0.00 0 0.0 0.00 0.0 0.103 0.000 71.9 50 52.2 70.9 9.25 .0742 0.000 203 7 100.0 10
5/08/26 2:20a 50.1 50.2 50.0 88 46.7 0.0 ENE 0.00 2.0 ENE 50.1 50.3 50.3 47.0 30.133 0.00 0.00 0 0.00 0 0.0 0.00 0.0 0.103 0.000 71.9 50 52.2 70.9 9.25 .0742 0.000 202 7 100.0 10
5/08/26 2:30a 50.3 50.3 50.1 89 47.2 0.0 ENE 0.00 2.0 ENE 50.3 50.5 50.5 47.3 30.133 0.00 0.00 0 0.00 0 0.0 0.00 0.0 0.102 0.000 71.8 50 52.2 70.8 9.25 .0742 0.000 201 7 100.0 10
5/08/26 2:40a 50.5 50.5 50.3 89 47.4 1.0 ENE 0.17 2.0 ENE 50.5 50.7 50.7 47.5 30.133 0.00 0.00 0 0.00 0 0.0 0.00 0.0 0.101 0.000 71.8 50 52.2 70.8 9.25 .0742 0.000 203 7 100.0 10
5/08/26 2:50a 50.5 50.5 50.4 89 47.4 1.0 ENE 0.17 2.0 ENE 50.5 50.7 50.7 47.5 30.129 0.00 0.00 0 0.00 0 0.0 0.00 0.0 0.101 0.000 71.8 50 52.2 70.8 9.25 .0742 0.000 203 7 100.0 10
5/08/26 3:00a 50.6 50.6 50.5 89 47.5 1.0 ENE 0.17 3.0 ENE 50.6 50.8 50.8 47.6 30.132 0.00 0.00 0 0.00 0 0.0 0.00 0.0 0.100 0.000 71.7 50 52.1 70.6 9.25 .0742 0.000 204 7 100.0 10
5/08/26 3:10a 50.7 50.7 50.6 89 47.6 2.0 SSE 0.33 5.0 S 50.7 50.9 50.9 47.7 30.137 0.00 0.00 0 0.00 0 0.0 0.00 0.0 0.099 0.000 71.7 50 52.1 70.6 9.25 .0742 0.000 203 7 100.0 10
5/08/26 3:20a 51.3 51.4 50.8 89 48.2 3.0 S 0.50 6.0 SSE 51.1 51.5 51.3 48.1 30.142 0.00 0.00 0 0.00 0 0.0 0.00 0.0 0.095 0.000 71.6 50 52.0 70.5 9.25 .0743 0.000 204 7 100.0 10
5/08/26 3:30a 51.5 51.6 51.3 89 48.4 3.0 SSE 0.50 6.0 SSE 51.4 51.7 51.6 48.4 30.143 0.00 0.00 0 0.00 0 0.0 0.00 0.0 0.094 0.000 71.6 50 52.0 70.5 9.25 .0743 0.000 201 7 100.0 10
5/08/26 3:40a 51.5 51.6 51.5 88 48.1 4.0 S 0.67 7.0 SE 50.6 51.6 50.7 47.5 30.143 0.00 0.00 0 0.00 0 0.0 0.00 0.0 0.094 0.000 71.6 50 52.0 70.5 9.25 .0743 0.000 203 7 100.0 10
5/08/26 3:50a 51.6 51.6 51.4 88 48.2 4.0 S 0.67 8.0 SW 50.7 51.7 50.8 47.6 30.139 0.00 0.00 0 0.00 0 0.0 0.00 0.0 0.093 0.000 71.6 50 52.0 70.5 9.25 .0743 0.000 205 7 100.0 10
5/08/26 4:00a 51.8 51.8 51.5 86 47.7 5.0 SSW 0.83 8.0 SSW 50.4 51.8 50.4 47.2 30.137 0.00 0.00 0 0.00 0 0.0 0.00 0.0 0.092 0.000 71.5 50 51.9 70.3 9.25 .0743 0.001 202 7 100.0 10
5/08/26 4:10a 52.1 52.2 51.8 87 48.3 3.0 SSE 0.50 7.0 SSE 52.0 52.2 52.1 48.9 30.143 0.00 0.00 0 0.00 0 0.0 0.00 0.0 0.090 0.000 71.5 50 51.9 70.3 9.25 .0743 0.000 202 7 100.0 10
5/08/26 4:20a 51.6 52.1 51.6 86 47.5 4.0 S 0.67 9.0 S 50.7 51.6 50.7 47.5 30.152 0.00 0.00 0 0.00 0 0.0 0.00 0.0 0.093 0.000 71.4 50 51.8 70.2 9.25 .0743 0.000 204 7 100.0 10
5/08/26 4:30a 51.9 51.9 51.6 86 47.8 5.0 SW 0.83 9.0 SW 50.5 51.9 50.5 47.3 30.152 0.00 0.00 0 0.00 0 0.0 0.00 0.0 0.091 0.000 71.4 50 51.8 70.2 9.25 .0743 0.000 205 7 100.0 10
5/08/26 4:40a 52.1 52.2 51.9 86 48.0 5.0 SW 0.83 10.0 SE 50.7 52.1 50.7 47.5 30.154 0.00 0.00 0 0.00 0 0.0 0.00 0.0 0.090 0.000 71.4 50 51.8 70.2 9.25 .0743 0.000 200 7 100.0 10
5/08/26 4:50a 52.2 52.2 51.9 85 47.8 6.0 SW 1.00 10.0 SW 50.2 52.2 50.2 47.0 30.158 0.00 0.00 0 0.00 0 0.0 0.00 0.0 0.089 0.000 71.3 50 51.7 70.1 9.25 .0744 0.000 202 7 100.0 10
5/08/26 5:00a 52.1 52.2 52.1 86 48.0 6.0 SSW 1.00 9.0 SSE 50.1 52.1 50.1 46.9 30.162 0.00 0.00 0 0.00 0 0.0 0.00 0.0 0.090 0.000 71.3 50 51.7 70.1 9.25 .0744 0.001 205 7 100.0 10
5/08/26 5:10a 52.0 52.2 51.9 85 47.6 7.0 SW 1.17 12.0 SW 49.6 52.0 49.6 46.4 30.162 0.00 0.00 0 0.00 0 0.0 0.00 0.0 0.090 0.000 71.3 50 51.7 70.1 9.25 .0744 0.000 204 7 100.0 10
5/08/26 5:20a 52.3 52.3 52.0 84 47.6 7.0 SW 1.17 12.0 SW 50.0 52.2 49.9 46.7 30.167 0.00 0.00 0 0.00 0 0.0 0.00 0.0 0.088 0.000 71.2 50 51.6 69.9 9.25 .0744 0.000 201 7 100.0 10
5/08/26 5:30a 52.1 52.4 52.1 84 47.4 7.0 SW 1.17 12.0 SW 49.7 52.0 49.6 46.4 30.168 0.00 0.00 0 0.00 0 0.0 0.00 0.0 0.090 0.000 71.2 50 51.6 69.9 9.25 .0744 0.000 202 7 100.0 10
5/08/26 5:40a 52.2 52.3 52.2 84 47.5 6.0 SW 1.00 10.0 SW 50.2 52.1 50.1 46.9 30.168 0.00 0.00 0 0.00 0 0.0 0.00 0.0 0.089 0.000 71.2 50 51.6 69.9 9.25 .0744 0.000 204 7 100.0 10
5/08/26 5:50a 52.3 52.4 52.2 85 47.9 3.0 SW 0.50 7.0 S 52.2 52.3 52.2 49.0 30.162 0.00 0.00 0 0.00 0 0.0 0.00 0.0 0.088 0.000 71.2 50 51.6 69.9 9.25 .0744 0.000 201 7 100.0 10
5/08/26 6:00a 52.3 52.4 52.3 85 47.9 3.0 S 0.50 5.0 S 52.2 52.3 52.2 49.0 30.159 0.00 0.00 0 0.00 0 0.0 0.00 0.0 0.088 0.000 71.2 50 51.6 69.9 9.25 .0744 0.001 204 7 100.0 10
5/08/26 6:10a 51.8 52.3 51.8 85 47.4 4.0 SSE 0.67 7.0 SSE 51.0 51.8 51.0 48.0 30.159 0.00 0.00 8 0.11 12 0.0 0.00 0.0 0.092 0.000 71.2 50 51.6 69.9 9.25 .0744 0.000 203 7 100.0 10
5/08/26 6:20a 51.9 51.9 51.7 84 47.2 4.0 S 0.67 8.0 SSE 51.1 51.9 51.1 48.2 30.163 0.00 0.00 16 0.23 18 0.0 0.00 0.0 0.091 0.000 71.2 50 51.6 69.9 9.25 .0744 0.000 204 7 100.0 10
5/08/26 6:30a 52.1 52.2 51.9 84 47.4 3.0 S 0.50 6.0 S 52.0 52.0 51.9 49.0 30.158 0.00 0.00 16 0.23 18 0.0 0.00 0.0 0.090 0.000 71.1 50 51.5 69.8 9.25 .0744 0.000 201 7 100.0 10
5/08/26 6:40a 52.2 52.3 52.1 84 47.5 2.0 S 0.33 6.0 SSE 52.2 52.1 52.1 49.4 30.158 0.00 0.00 24 0.34 35 0.0 0.00 0.0 0.089 0.000 71.1 50 51.5 69.8 9.25 .0744 0.000 202 7 100.0 10
5/08/26 6:50a 52.1 52.2 52.0 84 47.4 0.0 S 0.00 3.0 S 52.1 52.0 52.0 49.8 30.163 0.00 0.00 48 0.69 53 0.0 0.00 0.0 0.090 0.000 71.2 50 51.6 69.9 9.25 .0744 0.000 204 7 100.0 10
5/08/26 7:00a 52.2 52.2 52.1 84 47.5 1.0 S 0.17 2.0 S 52.2 52.1 52.1 50.6 30.156 0.00 0.00 78 1.12 95 0.0 0.00 0.0 0.089 0.000 71.1 50 51.5 69.8 9.25 .0744 0.001 205 7 100.0 10
5/08/26 7:10a 52.1 52.2 52.1 84 47.4 1.0 SE 0.17 4.0 SSE 52.1 52.0 52.0 50.5 30.156 0.00 0.00 81 1.16 93 0.0 0.00 0.0 0.090 0.000 71.2 50 51.6 69.9 9.25 .0744 0.000 202 7 100.0 10
5/08/26 7:20a 52.3 52.3 52.1 83 47.3 1.0 ESE 0.17 3.0 ESE 52.3 52.2 52.2 50.7 30.167 0.00 0.00 78 1.12 88 0.0 0.00 0.0 0.088 0.000 71.2 50 51.6 69.9 9.25 .0744 0.000 203 7 100.0 10
5/08/26 7:30a 52.2 52.5 52.2 83 47.2 2.0 SW 0.33 6.0 S 52.2 52.1 52.1 50.0 30.167 0.00 0.00 50 0.72 76 0.0 0.00 0.0 0.089 0.000 71.2 50 51.6 69.9 9.25 .0744 0.000 202 7 100.0 10
5/08/26 7:40a 52.5 52.5 52.2 83 47.5 2.0 S 0.33 4.0 SSE 52.5 52.4 52.4 54.4 30.173 0.00 0.00 101 1.45 116 0.0 0.00 0.0 0.087 0.000 71.2 50 51.6 69.9 9.25 .0744 0.000 205 7 100.0 10
5/08/26 7:50a 52.5 52.6 52.4 82 47.2 4.0 S 0.67 7.0 SSE 51.8 52.3 51.6 52.2 30.177 0.00 0.00 57 0.82 81 0.0 0.00 0.0 0.087 0.000 71.1 50 51.5 69.8 9.25 .0745 0.000 202 7 100.0 10
5/08/26 8:00a 52.6 52.6 52.4 82 47.3 4.0 SSW 0.67 8.0 S 51.9 52.4 51.7 52.2 30.185 0.00 0.00 55 0.79 60 0.0 0.00 0.0 0.086 0.000 71.2 50 51.6 69.9 9.25 .0745 0.002 202 7 100.0 10
5/08/26 8:10a 52.5 52.6 52.4 84 47.8 5.0 S 0.83 9.0 SSE 51.2 52.4 51.1 52.5 30.191 0.00 0.00 78 1.12 93 0.0 0.00 0.0 0.087 0.000 71.2 50 51.6 69.9 9.25 .0745 0.000 204 7 100.0 10
5/08/26 8:20a 52.4 52.6 52.4 84 47.7 4.0 SSW 0.67 7.0 ESE 51.6 52.3 51.5 52.7 30.194 0.00 0.00 76 1.09 91 0.0 0.00 0.0 0.087 0.000 71.2 50 51.6 69.9 9.25 .0745 0.000 202 7 100.0 10
5/08/26 8:30a 52.3 52.5 52.3 85 47.9 4.0 S 0.67 6.0 SSW 51.5 52.3 51.5 52.0 30.196 0.00 0.00 62 0.89 97 0.0 0.00 0.0 0.088 0.000 71.2 50 51.6 69.9 9.25 .0745 0.000 202 7 100.0 10
5/08/26 8:40a 52.4 52.4 52.3 86 48.3 4.0 S 0.67 7.0 SSW 51.6 52.4 51.6 53.0 30.195 0.00 0.00 87 1.25 104 0.3 0.02 0.5 0.087 0.000 71.2 50 51.6 69.9 9.25 .0745 0.000 204 7 100.0 10
5/08/26 8:50a 52.4 52.4 52.3 86 48.3 4.0 S 0.67 8.0 SSE 51.6 52.4 51.6 53.7 30.198 0.00 0.00 107 1.53 111 0.5 0.04 0.5 0.087 0.000 71.2 50 51.6 69.9 9.25 .0745 0.000 203 7 100.0 10
5/08/26 9:00a 52.6 52.6 52.3 85 48.2 5.0 S 0.83 8.0 SSE 51.3 52.5 51.2 54.4 30.195 0.00 0.00 145 2.08 160 0.7 0.05 0.7 0.086 0.000 71.3 50 51.7 70.1 9.25 .0745 0.002 203 7 100.0 10
5/08/26 9:10a 52.7 52.7 52.5 85 48.3 6.0 S 1.00 10.0 SSE 50.8 52.6 50.7 53.4 30.196 0.00 0.00 133 1.91 146 0.7 0.05 0.7 0.085 0.000 71.3 50 51.7 70.1 9.25 .0745 0.000 203 7 100.0 10
5/08/26 9:20a 52.8 52.8 52.7 85 48.4 6.0 S 1.00 9.0 SSE 51.0 52.7 50.9 52.9 30.200 0.00 0.00 117 1.68 130 0.6 0.04 0.7 0.085 0.000 71.3 50 51.7 70.1 9.25 .0745 0.000 202 7 100.0 10
5/08/26 9:30a 52.8 52.8 52.7 85 48.4 6.0 S 1.00 10.0 SSE 51.0 52.7 50.9 53.7 30.203 0.00 0.00 147 2.11 158 0.8 0.06 0.9 0.085 0.000 71.3 50 51.7 70.1 9.25 .0745 0.000 204 7 100.0 10
5/08/26 9:40a 52.8 52.9 52.8 84 48.1 6.0 S 1.00 9.0 S 51.0 52.7 50.9 54.5 30.207 0.00 0.00 179 2.57 202 1.0 0.07 1.1 0.085 0.000 71.3 50 51.7 70.1 9.25 .0745 0.000 203 7 100.0 10
5/08/26 9:50a 52.9 53.0 52.8 84 48.2 6.0 S 1.00 10.0 S 51.1 52.8 51.0 54.4 30.213 0.00 0.00 174 2.49 190 1.0 0.07 1.1 0.084 0.000 71.4 50 51.8 70.2 9.25 .0745 0.000 204 7 100.0 10
5/08/26 10:00a 53.1 53.1 52.9 83 48.1 6.0 S 1.00 9.0 SSE 51.3 52.9 51.1 54.0 30.213 0.00 0.00 161 2.31 163 1.0 0.07 1.0 0.083 0.000 71.4 50 51.8 70.2 9.25 .0745 0.004 202 7 100.0 10
5/08/26 10:10a 53.2 53.2 53.0 84 48.5 6.0 S 1.00 10.0 SSE 51.4 53.1 51.3 53.7 30.216 0.00 0.00 147 2.11 153 0.9 0.06 1.0 0.082 0.000 71.4 50 51.8 70.2 9.25 .0745 0.000 204 7 100.0 10
5/08/26 10:20a 53.2 53.2 53.1 83 48.2 6.0 S 1.00 9.0 S 51.4 53.0 51.2 53.1 30.217 0.00 0.00 134 1.92 141 0.9 0.06 0.9 0.082 0.000 71.4 50 51.8 70.2 9.25 .0745 0.000 200 7 100.0 10
5/08/26 10:30a 53.4 53.5 53.2 83 48.4 6.0 S 1.00 9.0 S 51.7 53.2 51.5 53.8 30.219 0.00 0.00 152 2.18 165 1.0 0.07 1.1 0.081 0.000 71.4 50 51.8 70.2 9.25 .0745 0.000 203 7 100.0 10
5/08/26 10:40a 53.4 53.4 53.3 85 49.0 6.0 S 1.00 9.0 S 51.7 53.3 51.6 55.2 30.222 0.00 0.00 205 2.94 262 1.4 0.10 1.7 0.081 0.000 71.5 50 51.9 70.3 9.25 .0745 0.000 201 7 100.0 10
5/08/26 10:50a 53.3 53.4 53.2 86 49.2 6.0 S 1.00 8.0 SSE 51.6 53.2 51.5 57.9 30.223 0.00 0.00 324 4.64 404 2.2 0.16 2.7 0.081 0.000 71.6 50 52.0 70.5 9.25 .0745 0.000 202 7 100.0 10
5/08/26 11:00a 53.7 53.7 53.2 85 49.3 6.0 S 1.00 9.0 S 52.0 53.6 51.9 60.0 30.221 0.00 0.00 419 6.01 432 2.8 0.20 2.9 0.078 0.000 71.6 49 51.4 70.4 9.05 .0745 0.005 202 7 100.0 10
5/08/26 11:10a 53.9 53.9 53.7 85 49.5 6.0 S 1.00 9.0 S 52.3 53.8 52.2 60.7 30.221 0.00 0.00 449 6.44 497 3.1 0.22 3.3 0.077 0.000 71.7 49 51.5 70.5 9.05 .0745 0.000 200 7 100.0 10
5/08/26 11:20a 54.1 54.2 53.9 85 49.7 6.0 S 1.00 10.0 SSE 52.5 54.0 52.4 61.5 30.221 0.00 0.00 495 7.10 575 3.5 0.25 3.7 0.076 0.000 71.7 49 51.5 70.5 9.05 .0745 0.000 203 7 100.0 10
5/08/26 11:30a 54.1 54.2 54.0 85 49.7 7.0 S 1.17 9.0 S 52.1 54.0 52.0 59.8 30.223 0.00 0.00 433 6.21 455 3.8 0.27 5.1 0.076 0.000 71.8 49 51.6 70.7 9.05 .0745 0.000 205 7 100.0 10
5/08/26 11:40a 54.3 54.4 54.1 84 49.6 7.0 S 1.17 11.0 S 52.4 54.2 52.3 65.5 30.219 0.00 0.00 961 13.78 1049 5.3 0.38 5.9 0.074 0.000 71.8 49 51.6 70.7 9.05 .0745 0.000 201 7 100.0 10
5/08/26 11:50a 54.5 54.5 54.1 84 49.8 9.0 S 1.50 13.0 S 51.2 54.4 51.1 60.8 30.216 0.00 0.00 677 9.70 745 4.8 0.34 5.3 0.073 0.000 71.9 49 51.7 70.9 9.05 .0744 0.000 203 7 100.0 10
5/08/26 12:00p 54.5 54.6 54.4 85 50.1 9.0 S 1.50 12.0 SSE 51.2 54.4 51.1 60.9 30.215 0.00 0.00 713 10.22 854 5.1 0.36 5.8 0.073 0.000 71.9 49 51.7 70.9 9.05 .0744 0.013 204 7 100.0 10
5/08/26 12:10p 54.5 54.6 54.3 85 50.1 9.0 SSW 1.50 13.0 SW 51.2 54.4 51.1 61.1 30.214 0.00 0.00 860 12.33 923 5.6 0.40 5.9 0.073 0.000 71.9 49 51.7 70.9 9.05 .0744 0.000 203 7 100.0 10
5/08/26 12:20p 54.5 54.7 54.5 85 50.1 9.0 SSW 1.50 14.0 SW 51.2 54.4 51.1 61.1 30.217 0.00 0.00 867 12.43 918 5.8 0.41 6.1 0.073 0.000 71.9 49 51.7 70.9 9.05 .0744 0.000 202 7 100.0 10
5/08/26 12:30p 54.6 54.8 54.3 85 50.2 9.0 SSW 1.50 15.0 SSE 51.3 54.5 51.2 61.0 30.218 0.00 0.00 744 10.67 805 5.6 0.40 6.1 0.072 0.000 72.0 49 51.8 71.0 9.05 .0744 0.000 203 7 100.0 10
5/08/26 12:40p 54.8 54.8 54.5 84 50.1 9.0 S 1.50 13.0 S 51.6 54.7 51.5 61.4 30.217 0.00 0.00 877 12.57 889 6.0 0.43 6.0 0.071 0.000 72.0 49 51.8 71.0 9.05 .0744 0.000 203 7 100.0 10
5/08/26 12:50p 55.0 55.1 54.7 83 49.9 8.0 SSW 1.33 14.0 SSE 52.5 54.8 52.3 62.4 30.213 0.00 0.00 875 12.54 877 6.1 0.44 6.1 0.069 0.000 72.0 49 51.8 71.0 9.05 .0744 0.000 203 7 100.0 10
5/08/26 1:00p 55.0 55.1 54.9 83 49.9 8.0 SSW 1.33 12.0 S 52.5 54.8 52.3 62.3 30.217 0.00 0.00 876 12.56 877 6.1 0.44 6.1 0.069 0.000 72.1 49 51.9 71.1 9.05 .0744 0.017 202 7 100.0 10
5/08/26 1:10p 54.9 55.1 54.8 83 49.8 9.0 SSW 1.50 13.0 SSE 51.7 54.7 51.5 61.1 30.219 0.00 0.00 876 12.56 877 6.1 0.44 6.1 0.070 0.000 72.2 49 52.0 71.3 9.05 .0744 0.000 202 7 100.0 10
5/08/26 1:20p 54.8 55.1 54.8 84 50.1 9.0 S 1.50 13.0 SSE 51.6 54.7 51.5 61.1 30.222 0.00 0.00 874 12.53 875 6.1 0.44 6.1 0.071 0.000 72.2 49 52.0 71.3 9.05 .0744 0.000 204 7 100.0 10
5/08/26 1:30p 55.1 55.2 54.8 85 50.7 8.0 SSW 1.33 12.0 SE 52.6 55.0 52.5 62.5 30.225 0.00 0.00 870 12.47 872 6.1 0.44 6.1 0.069 0.000 72.3 49 52.1 71.4 9.05 .0744 0.000 202 7 100.0 10
5/08/26 1:40p 55.0 55.1 55.0 84 50.3 8.0 SSW 1.33 12.0 S 52.5 54.9 52.4 62.3 30.226 0.00 0.00 866 12.41 868 6.1 0.44 6.1 0.069 0.000 72.3 49 52.1 71.4 9.05 .0744 0.000 202 7 100.0 10
5/08/26 1:50p 55.5 55.5 55.0 85 51.1 8.0 SSW 1.33 12.0 SSE 53.1 55.4 53.0 63.0 30.227 0.00 0.00 860 12.33 863 6.1 0.44 6.1 0.066 0.000 72.5 49 52.2 71.7 9.05 .0744 0.000 199 7 100.0 10
5/08/26 2:00p 55.7 55.8 55.5 85 51.3 8.0 S 1.33 13.0 S 53.3 55.6 53.2 63.2 30.229 0.00 0.00 853 12.23 858 6.0 0.43 6.0 0.065 0.000 72.5 49 52.2 71.7 9.05 .0744 0.018 203 7 100.0 10
5/08/26 2:10p 55.8 55.9 55.5 84 51.0 7.0 S 1.17 11.0 SE 54.2 55.7 54.1 64.5 30.229 0.00 0.00 844 12.10 847 5.9 0.42 5.9 0.064 0.000 72.6 49 52.3 71.9 9.05 .0743 0.000 203 7 100.0 10
5/08/26 2:20p 56.0 56.0 55.8 85 51.6 7.0 S 1.17 11.0 SSE 54.4 55.9 54.3 64.7 30.229 0.00 0.00 837 12.00 838 5.7 0.41 5.8 0.063 0.000 72.7 49 52.4 72.0 9.05 .0743 0.000 201 7 100.0 10
5/08/26 2:30p 56.0 56.1 55.9 84 51.2 6.0 S 1.00 9.0 SSE 54.8 55.9 54.7 65.1 30.227 0.00 0.00 812 11.64 826 5.5 0.39 5.6 0.063 0.000 72.8 49 52.5 72.1 9.05 .0743 0.000 202 7 100.0 10
5/08/26 2:40p 55.7 56.0 55.6 84 50.9 6.0 S 1.00 8.0 SSW 54.4 55.6 54.3 64.8 30.227 0.00 0.00 812 11.64 819 5.4 0.39 5.5 0.065 0.000 72.9 49 52.6 72.3 9.05 .0743 0.000 204 7 100.0 10
5/08/26 2:50p 55.6 55.8 55.5 84 50.8 6.0 SSW 1.00 8.0 SE 54.3 55.5 54.2 64.7 30.227 0.00 0.00 795 11.40 805 5.2 0.37 5.3 0.065 0.000 72.9 49 52.6 72.3 9.05 .0743 0.000 203 7 100.0 10
5/08/26 3:00p 55.6 55.7 55.5 84 50.8 7.0 SSW 1.17 10.0 SW 53.9 55.5 53.8 64.1 30.231 0.00 0.00 722 10.35 796 4.8 0.34 5.2 0.065 0.000 73.0 49 52.7 72.4 9.05 .0743 0.016 202 7 100.0 10
5/08/26 3:10p 55.9 55.9 55.5 84 51.1 6.0 SSW 1.00 9.0 SSE 54.7 55.8 54.6 65.5 30.229 0.00 0.00 780 11.18 793 4.9 0.35 5.0 0.063 0.000 73.0 49 52.7 72.4 9.05 .0743 0.000 203 7 100.0 10
5/08/26 3:20p 56.0 56.0 55.9 84 51.2 5.0 SW 0.83 7.0 SW 55.3 55.9 55.2 65.9 30.229 0.00 0.00 752 10.78 765 4.7 0.34 4.8 0.063 0.000 73.1 49 52.8 72.5 9.05 .0743 0.000 204 7 100.0 10
5/08/26 3:30p 56.3 56.4 56.0 83 51.2 5.0 SW 0.83 8.0 SSE 55.6 56.1 55.4 66.0 30.229 0.00 0.00 727 10.42 740 4.4 0.31 4.5 0.060 0.000 73.1 49 52.8 72.5 9.05 .0743 0.000 201 7 100.0 10
5/08/26 3:40p 56.1 56.3 56.0 83 51.0 5.0 SW 0.83 7.0 SW 55.4 55.9 55.2 66.0 30.230 0.00 0.00 718 10.29 726 4.2 0.30 4.3 0.062 0.000 73.2 49 52.9 72.7 9.05 .0742 0.000 203 7 100.0 10
5/08/26 3:50p 56.0 56.2 55.9 83 50.9 5.0 SW 0.83 7.0 WSW 55.3 55.8 55.1 65.6 30.230 0.00 0.00 622 8.92 714 3.7 0.26 4.1 0.063 0.000 73.2 49 52.9 72.7 9.05 .0742 0.000 204 7 100.0 10
5/08/26 4:00p 56.4 56.6 55.8 83 51.3 4.0 SW 0.67 6.0 WSW 56.3 56.2 56.1 66.4 30.234 0.00 0.00 648 9.29 668 3.7 0.26 3.7 0.060 0.000 73.3 48 52.4 72.7 8.92 .0743 0.014 203 7 100.0 10
5/08/26 4:10p 56.6 56.6 55.9 83 51.5 4.0 WSW 0.67 7.0 WSW 56.5 56.4 56.3 66.9 30.232 0.00 0.00 640 9.17 650 3.5 0.25 3.6 0.058 0.000 73.4 49 53.1 72.9 9.05 .0742 0.000 203 7 100.0 10
5/08/26 4:20p 56.6 56.7 56.4 83 51.5 3.0 W 0.50 6.0 W 56.6 56.4 56.4 67.5 30.229 0.00 0.00 638 9.15 650 3.3 0.24 3.4 0.058 0.000 73.4 49 53.1 72.9 9.05 .0742 0.000 203 7 100.0 10
5/08/26 4:30p 56.4 56.8 56.3 83 51.3 3.0 W 0.50 4.0 W 56.4 56.2 56.2 66.7 30.230 0.00 0.00 588 8.43 621 3.0 0.21 3.1 0.060 0.000 73.5 49 53.2 73.0 9.05 .0742 0.000 203 7 100.0 10
5/08/26 4:40p 56.7 56.8 56.4 82 51.3 3.0 W 0.50 7.0 WNW 56.7 56.5 56.5 66.8 30.226 0.00 0.00 556 7.97 585 2.7 0.19 2.9 0.058 0.000 73.6 49 53.3 73.2 9.05 .0742 0.000 202 7 100.0 10
5/08/26 4:50p 56.7 56.8 56.6 83 51.6 3.0 WNW 0.50 6.0 W 56.7 56.5 56.5 66.5 30.224 0.00 0.00 472 6.77 494 2.3 0.16 2.4 0.058 0.000 73.6 49 53.3 73.2 9.05 .0742 0.000 204 7 100.0 10
5/08/26 5:00p 57.1 57.2 56.6 83 52.0 3.0 WNW 0.50 4.0 WNW 57.1 56.9 56.9 67.9 30.226 0.00 0.00 533 7.64 571 2.3 0.16 2.4 0.055 0.000 73.7 49 53.3 73.3 9.05 .0741 0.012 204 7 100.0 10
5/08/26 5:10p 56.8 57.2 56.7 82 51.4 3.0 WNW 0.50 5.0 WNW 56.8 56.6 56.6 66.3 30.222 0.00 0.00 429 6.15 445 1.9 0.14 2.1 0.057 0.000 73.8 49 53.4 73.4 9.05 .0741 0.000 204 7 100.0 10
5/08/26 5:20p 57.8 57.9 56.8 82 52.3 3.0 NW 0.50 5.0 NW 57.8 57.6 57.6 68.2 30.222 0.00 0.00 470 6.74 519 1.8 0.13 1.9 0.050 0.000 73.8 49 53.4 73.4 9.05 .0741 0.000 202 7 100.0 10
5/08/26 5:30p 58.2 58.2 57.8 83 53.1 3.0 WNW 0.50 5.0 NW 58.2 58.1 58.1 68.8 30.220 0.00 0.00 448 6.42 475 1.6 0.11 1.7 0.047 0.000 73.9 49 53.5 73.5 9.05 .0741 0.000 204 7 100.0 10
5/08/26 5:40p 58.6 58.7 58.3 82 53.1 3.0 NNW 0.50 5.0 NNW 58.6 58.5 58.5 69.4 30.215 0.00 0.00 431 6.18 450 1.5 0.11 1.6 0.044 0.000 74.0 49 53.6 73.6 9.05 .0741 0.000 201 7 100.0 10
5/08/26 5:50p 59.4 59.5 58.6 81 53.6 3.0 NNW 0.50 5.0 NNW 59.4 59.3 59.3 69.6 30.212 0.00 0.00 391 5.61 408 1.3 0.09 1.3 0.039 0.000 73.9 49 53.5 73.5 9.05 .0741 0.000 203 7 100.0 10
5/08/26 6:00p 58.3 59.4 58.3 81 52.5 4.0 NNW 0.67 5.0 NW 58.3 58.1 58.1 68.0 30.209 0.00 0.00 362 5.19 380 1.1 0.08 1.2 0.047 0.000 73.9 49 53.5 73.5 9.05 .0741 0.009 203 7 100.0 10
5/08/26 6:10p 58.5 58.5 58.1 83 53.4 4.0 NNW 0.67 6.0 NNW 58.5 58.4 58.4 68.1 30.203 0.00 0.00 335 4.80 346 0.9 0.06 1.0 0.045 0.000 74.0 49 53.6 73.6 9.05 .0740 0.000 202 7 100.0 10
5/08/26 6:20p 59.0 59.0 58.5 82 53.5 4.0 N 0.67 8.0 N 59.0 58.9 58.9 67.9 30.199 0.00 0.00 305 4.37 318 0.8 0.06 0.9 0.042 0.000 74.1 49 53.7 73.8 9.05 .0740 0.000 202 7 100.0 10
5/08/26 6:30p 58.6 59.2 58.5 81 52.8 5.0 N 0.83 9.0 N 58.3 58.4 58.1 66.3 30.196 0.00 0.00 273 3.91 288 0.7 0.05 0.7 0.044 0.000 74.1 49 53.7 73.8 9.05 .0740 0.000 205 7 100.0 10
5/08/26 6:40p 59.1 59.1 58.5 82 53.6 6.0 N 1.00 9.0 NNE 58.5 59.0 58.4 65.8 30.196 0.00 0.00 242 3.47 258 0.5 0.04 0.6 0.041 0.000 74.2 49 53.8 73.9 9.05 .0740 0.000 201 7 100.0 10
5/08/26 6:50p 58.9 59.1 58.8 81 53.1 5.0 N 0.83 9.0 N 58.7 58.7 58.5 65.1 30.202 0.00 0.00 213 3.05 227 0.2 0.01 0.5 0.042 0.000 74.2 49 53.8 73.9 9.05 .0740 0.000 203 7 100.0 10
5/08/26 7:00p 58.5 59.0 58.5 82 53.0 5.0 NNE 0.83 8.0 NNW 58.2 58.4 58.1 63.6 30.204 0.00 0.00 181 2.59 195 0.0 0.00 0.0 0.045 0.000 74.3 49 53.9 74.1 9.05 .0740 0.006 202 7 100.0 10
5/08/26 7:10p 57.5 58.5 57.5 82 52.0 6.0 NNE 1.00 10.0 NNE 56.6 57.3 56.4 56.5 30.205 0.00 0.00 145 2.08 163 0.0 0.00 0.0 0.052 0.000 74.3 49 53.9 74.1 9.05 .0740 0.000 204 7 100.0 10
5/08/26 7:20p 57.2 57.6 57.2 83 52.1 6.0 N 1.00 10.0 NE 56.2 57.0 56.0 55.4 30.206 0.00 0.00 112 1.61 125 0.0 0.00 0.0 0.054 0.000 74.4 49 54.0 74.2 9.05 .0740 0.000 203 7 100.0 10
5/08/26 7:30p 57.4 57.4 57.1 84 52.6 5.0 NNE 0.83 9.0 NNE 56.9 57.3 56.8 55.6 30.204 0.00 0.00 84 1.20 95 0.0 0.00 0.0 0.053 0.000 74.4 49 54.0 74.2 9.05 .0740 0.000 200 7 100.0 10
5/08/26 7:40p 57.1 57.5 57.1 83 52.0 5.0 N 0.83 9.0 NNE 56.5 56.9 56.3 54.6 30.206 0.00 0.00 62 0.89 72 0.0 0.00 0.0 0.055 0.000 74.4 49 54.0 74.2 9.05 .0740 0.000 203 7 100.0 10
5/08/26 7:50p 57.2 57.2 57.1 83 52.1 4.0 NE 0.67 8.0 N 57.2 57.0 57.0 55.0 30.205 0.00 0.00 43 0.62 51 0.0 0.00 0.0 0.054 0.000 74.4 49 54.0 74.2 9.05 .0740 0.000 203 7 100.0 10
5/08/26 8:00p 56.9 57.3 56.9 83 51.8 5.0 NE 0.83 8.0 NNE 56.3 56.7 56.1 53.7 30.206 0.00 0.00 29 0.42 35 0.0 0.00 0.0 0.056 0.000 74.4 49 54.0 74.2 9.05 .0740 0.002 201 7 100.0 10
5/08/26 8:10p 56.6 56.9 56.5 83 51.5 4.0 NE 0.67 8.0 NNE 56.5 56.4 56.3 53.7 30.206 0.00 0.00 20 0.29 25 0.0 0.00 0.0 0.058 0.000 74.4 49 54.0 74.2 9.05 .0740 0.000 202 7 100.0 10
5/08/26 8:20p 56.2 56.6 56.2 83 51.1 3.0 NE 0.50 7.0 NNE 56.2 56.0 56.0 53.2 30.203 0.00 0.00 12 0.17 16 0.0 0.00 0.0 0.061 0.000 74.3 49 53.9 74.1 9.05 .0740 0.000 202 7 100.0 10
5/08/26 8:30p 55.8 56.2 55.8 83 50.7 3.0 NE 0.50 6.0 NE 55.8 55.6 55.6 52.6 30.203 0.00 0.00 4 0.06 7 0.0 0.00 0.0 0.064 0.000 74.2 48 53.2 73.9 8.93 .0740 0.000 201 7 100.0 10
5/08/26 8:40p 55.6 55.8 55.5 83 50.5 2.0 NE 0.33 4.0 NE 55.6 55.4 55.4 52.3 30.203 0.00 0.00 0 0.00 0 0.0 0.00 0.0 0.065 0.000 74.1 49 53.7 73.8 9.05 .0740 0.000 204 7 100.0 10
5/08/26 8:50p 55.3 55.6 55.3 84 50.5 2.0 NE 0.33 5.0 NE 55.3 55.2 55.2 52.1 30.206 0.00 0.00 0 0.00 0 0.0 0.00 0.0 0.067 0.000 74.0 49 53.6 73.6 9.05 .0740 0.000 201 7 100.0 10
5/08/26 9:00p 55.1 55.3 55.1 83 50.0 2.0 ENE 0.33 6.0 NE 55.1 54.9 54.9 51.8 30.207 0.00 0.00 0 0.00 0 0.0 0.00 0.0 0.069 0.000 74.0 49 53.6 73.6 9.05 .0740 0.001 204 7 100.0 10
5/08/26 9:10p 54.8 55.1 54.8 84 50.1 2.0 NE 0.33 5.0 NE 54.8 54.7 54.7 51.6 30.207 0.00 0.00 0 0.00 0 0.0 0.00 0.0 0.071 0.000 74.0 49 53.6 73.6 9.05 .0740 0.000 200 7 100.0 10
5/08/26 9:20p 54.6 54.8 54.6 84 49.9 2.0 NE 0.33 7.0 NNE 54.6 54.5 54.5 51.4 30.212 0.00 0.00 0 0.00 0 0.0 0.00 0.0 0.072 0.000 73.9 48 53.0 73.5 8.93 .0741 0.000 201 7 100.0 10
5/08/26 9:30p 54.5 54.7 54.5 84 49.8 2.0 ENE 0.33 4.0 ENE 54.5 54.4 54.4 51.3 30.212 0.00 0.00 0 0.00 0 0.0 0.00 0.0 0.073 0.000 73.9 49 53.5 73.5 9.05 .0741 0.000 204 7 100.0 10
5/08/26 9:40p 54.4 54.6 54.4 84 49.7 2.0 E 0.33 5.0 NE 54.4 54.3 54.3 51.2 30.211 0.00 0.00 0 0.00 0 0.0 0.00 0.0 0.074 0.000 73.9 49 53.5 73.5 9.05 .0741 0.000 203 7 100.0 10
5/08/26 9:50p 54.3 54.4 54.2 84 49.6 2.0 ENE 0.33 5.0 ENE 54.3 54.2 54.2 51.1 30.212 0.00 0.00 0 0.00 0 0.0 0.00 0.0 0.074 0.000 73.9 49 53.5 73.5 9.05 .0741 0.000 200 7 100.0 10
5/08/26 10:00p 54.2 54.3 54.1 84 49.5 2.0 ENE 0.33 5.0 ENE 54.2 54.1 54.1 51.0 30.214 0.00 0.00 0 0.00 0 0.0 0.00 0.0 0.075 0.000 73.8 49 53.4 73.4 9.05 .0741 0.001 202 7 100.0 10
5/08/26 10:10p 54.1 54.2 54.1 85 49.7 2.0 ENE 0.33 8.0 ENE 54.1 54.0 54.0 50.9 30.213 0.00 0.00 0 0.00 0 0.0 0.00 0.0 0.076 0.000 73.8 49 53.4 73.4 9.05 .0741 0.000 204 7 100.0 10
5/08/26 10:20p 54.1 54.1 54.0 85 49.7 3.0 ENE 0.50 6.0 ENE 54.1 54.0 54.0 50.9 30.210 0.00 0.00 0 0.00 0 0.0 0.00 0.0 0.076 0.000 73.7 49 53.3 73.3 9.05 .0741 0.000 203 7 100.0 10
5/08/26 10:30p 53.9 54.1 53.9 85 49.5 2.0 ENE 0.33 6.0 NE 53.9 53.8 53.8 50.7 30.211 0.00 0.00 0 0.00 0 0.0 0.00 0.0 0.077 0.000 73.7 49 53.3 73.3 9.05 .0741 0.000 200 7 100.0 10
5/08/26 10:40p 53.7 53.9 53.7 85 49.3 2.0 ENE 0.33 5.0 ENE 53.7 53.6 53.6 50.5 30.212 0.00 0.00 0 0.00 0 0.0 0.00 0.0 0.078 0.000 73.6 49 53.3 73.2 9.05 .0741 0.000 204 7 100.0 10
5/08/26 10:50p 53.4 53.7 53.4 85 49.0 2.0 ENE 0.33 3.0 ENE 53.4 53.3 53.3 50.2 30.210 0.00 0.00 0 0.00 0 0.0 0.00 0.0 0.081 0.000 73.6 49 53.3 73.2 9.05 .0741 0.000 203 7 100.0 10
5/08/26 11:00p 53.3 53.4 53.3 85 48.9 2.0 ENE 0.33 5.0 ENE 53.3 53.2 53.2 50.0 30.209 0.00 0.00 0 0.00 0 0.0 0.00 0.0 0.081 0.000 73.5 49 53.2 73.0 9.05 .0741 0.001 204 7 100.0 10
5/08/26 11:10p 53.1 53.3 53.1 85 48.7 1.0 ENE 0.17 3.0 ENE 53.1 53.0 53.0 49.8 30.205 0.00 0.00 0 0.00 0 0.0 0.00 0.0 0.083 0.000 73.5 49 53.2 73.0 9.05 .0741 0.000 201 7 100.0 10
5/08/26 11:20p 52.7 53.1 52.7 85 48.3 2.0 ENE 0.33 3.0 ENE 52.7 52.6 52.6 49.4 30.201 0.00 0.00 0 0.00 0 0.0 0.00 0.0 0.085 0.000 73.5 49 53.2 73.0 9.05 .0741 0.000 203 7 100.0 10
5/08/26 11:30p 52.5 52.7 52.5 86 48.4 2.0 ENE 0.33 5.0 E 52.5 52.5 52.5 49.3 30.198 0.00 0.00 0 0.00 0 0.0 0.00 0.0 0.087 0.000 73.4 49 53.1 72.9 9.05 .0741 0.000 205 7 100.0 10
5/08/26 11:40p 52.4 52.5 52.3 87 48.6 3.0 ENE 0.50 8.0 ENE 52.3 52.4 52.3 49.1 30.194 0.00 0.00 0 0.00 0 0.0 0.00 0.0 0.087 0.000 73.4 49 53.1 72.9 9.05 .0741 0.000 203 7 100.0 10
5/08/26 11:50p 52.3 52.4 52.2 87 48.5 2.0 ENE 0.33 5.0 ENE 52.3 52.4 52.4 49.2 30.193 0.00 0.00 0 0.00 0 0.0 0.00 0.0 0.088 0.000 73.3 49 53.0 72.8 9.05 .0741 0.000 201 7 100.0 10
5/09/26 12:00a 52.1 52.3 52.0 87 48.3 1.0 ENE 0.17 3.0 ENE 52.1 52.2 52.2 49.0 30.192 0.00 0.00 0 0.00 0 0.0 0.00 0.0 0.090 0.000 73.2 49 52.9 72.7 9.05 .0741 0.001 204 7 100.0 10
5/09/26 12:10a 51.9 52.1 51.9 87 48.2 1.0 ENE 0.17 4.0 ENE 51.9 52.0 52.0 48.8 30.192 0.00 0.00 0 0.00 0 0.0 0.00 0.0 0.091 0.000 73.2 49 52.9 72.7 9.05 .0741 0.000 204 7 100.0 10
5/09/26 12:20a 52.0 52.0 51.9 88 48.6 1.0 ENE 0.17 4.0 ENE 52.0 52.1 52.1 48.9 30.190 0.00 0.00 0 0.00 0 0.0 0.00 0.0 0.090 0.000 73.1 49 52.8 72.5 9.05 .0742 0.000 201 7 100.0 10
5/09/26 12:30a 51.8 52.0 51.8 88 48.4 1.0 ENE 0.17 2.0 ENE 51.8 51.9 51.9 48.7 30.188 0.00 0.00 0 0.00 0 0.0 0.00 0.0 0.092 0.000 73.1 49 52.8 72.5 9.05 .0742 0.000 203 7 100.0 10
5/09/26 12:40a 51.8 51.9 51.7 88 48.4 1.0 ENE 0.17 4.0 ENE 51.8 51.9 51.9 48.7 30.187 0.00 0.00 0 0.00 0 0.0 0.00 0.0 0.092 0.000 73.0 49 52.7 72.4 9.05 .0742 0.000 201 7 100.0 10
5/09/26 12:50a 51.7 51.9 51.7 88 48.3 1.0 ENE 0.17 3.0 ENE 51.7 51.8 51.8 48.6 30.184 0.00 0.00 0 0.00 0 0.0 0.00 0.0 0.092 0.000 73.0 49 52.7 72.4 9.05 .0742 0.000 204 7 100.0 10
5/09/26 1:00a 51.7 51.9 51.7 88 48.3 2.0 E 0.33 5.0 ENE 51.7 51.8 51.8 48.6 30.182 0.00 0.00 0 0.00 0 0.0 0.00 0.0 0.092 0.000 72.9 49 52.6 72.3 9.05 .0742 0.000 203 7 100.0 10
5/09/26 1:10a 51.8 51.9 51.7 89 48.7 3.0 ENE 0.50 7.0 E 51.7 52.0 51.9 48.7 30.179 0.00 0.00 0 0.00 0 0.0 0.00 0.0 0.092 0.000 72.9 49 52.6 72.3 9.05 .0742 0.000 203 7 100.0 10
5/09/26 1:20a 51.8 51.9 51.7 89 48.7 3.0 E 0.50 8.0 ESE 51.7 52.0 51.9 48.7 30.179 0.00 0.00 0 0.00 0 0.0 0.00 0.0 0.092 0.000 72.8 49 52.5 72.1 9.05 .0742 0.000 204 7 100.0 10
5/09/26 1:30a 51.6 51.8 51.6 89 48.5 3.0 ENE 0.50 8.0 ESE 51.5 51.8 51.7 48.5 30.177 0.00 0.00 0 0.00 0 0.0 0.00 0.0 0.093 0.000 72.7 49 52.4 72.0 9.05 .0742 0.000 202 7 100.0 10
5/09/26 1:40a 51.6 51.7 51.5 89 48.5 2.0 NE 0.33 6.0 NE 51.6 51.8 51.8 48.6 30.171 0.00 0.00 0 0.00 0 0.0 0.00 0.0 0.093 0.000 72.7 49 52.4 72.0 9.05 .0742 0.000 200 7 100.0 10
5/09/26 1:50a 51.4 51.6 51.3 89 48.3 4.0 ENE 0.67 7.0 ENE 50.5 51.6 50.7 47.5 30.168 0.00 0.00 0 0.00 0 0.0 0.00 0.0 0.094 0.000 72.6 49 52.3 71.9 9.05 .0742 0.000 202 7 100.0 10
5/09/26 2:00a 51.3 51.4 51.3 89 48.2 3.0 ENE 0.50 7.0 ENE 51.1 51.5 51.3 48.1 30.162 0.00 0.00 0 0.00 0 0.0 0.00 0.0 0.095 0.000 72.6 49 52.3 71.9 9.05 .0742 0.000 205 7 100.0 10
5/09/26 2:10a 51.4 51.4 51.3 90 48.6 4.0 ENE 0.67 9.0 E 50.5 51.6 50.7 47.5 30.162 0.00 0.00 0 0.00 0 0.0 0.00 0.0 0.094 0.000 72.5 49 52.2 71.7 9.05 .0742 0.000 203 7 100.0 10
5/09/26 2:20a 51.4 51.4 51.3 90 48.6 4.0 ENE 0.67 9.0 E 50.5 51.6 50.7 47.5 30.160 0.00 0.00 0 0.00 0 0.0 0.00 0.0 0.094 0.000 72.5 49 52.2 71.7 9.05 .0742 0.000 200 7 100.0 10
5/09/26 2:30a 51.6 51.7 51.4 90 48.8 3.0 E 0.50 8.0 ENE 51.5 51.8 51.7 48.5 30.167 0.00 0.00 0 0.00 0 0.0 0.00 0.0 0.093 0.000 72.5 49 52.2 71.7 9.05 .0742 0.000 202 7 100.0 10